NEW HOGAN LAKE (NHG)

Elevation: 554' · CALAVERAS R basin · Operator: US Army Corps of Engineers

Provisional data, subject to change.
Query executed Saturday at 1:40:51   clock

Select a sensor type for a plot of data.
Note: Reservoir Flows are daily averages.

Earlier

Date RES ELE    STORAGE    RES CHG    TOC STO    ABV TOC    OUTFLOW    INFLOW    FNF    PPT INC    TEMP MN    TEMP MX   
 FEET   AF   AF   AF   AF   CFS   CFS   CFS   INCHES   DEG F   DEG F  
09/02/2016 641.27 90802 -486 317100 -226298 250 26 26 0.00 14 32
09/03/2016 641.05 90339 -463 317100 -226761 249 37 37 0.00 15 29
09/04/2016 640.81 89835 -504 317100 -227265 260 24 24 0.00 12 26
09/05/2016 640.61 89416 -419 317100 -227684 236 43 43 0.00 12 29
09/06/2016 640.41 88998 -418 317100 -228102 222 33 33 0.00 14 33
09/07/2016 640.18 88519 -479 317100 -228581 255 37 37 0.00 16 35
09/08/2016 639.94 88021 -498 317100 -229079 258 28 28 0.00 17 32
09/09/2016 639.74 87607 -414 317100 -229493 236 48 48 0.01 15 34
09/10/2016 639.56 87235 -372 317100 -229865 202 36 36 0.00 18 33
09/11/2016 639.38 86864 -371 317100 -230236 196 27 27 0.00 16 30
09/12/2016 639.20 86494 -370 317100 -230606 194 24 24 0.00 12 26
09/13/2016 639.02 86125 -369 317100 -230975 174 2 2 0.00 9 24
09/14/2016 638.85 85778 -347 317100 -231322 167 9 9 0.00 12 26
09/15/2016 638.65 85370 -408 317100 -231730 186 -2 -2 0.00 12 30
09/16/2016 638.47 85004 -366 317100 -232096 184 18 18 0.00 14 32
09/17/2016 638.30 84659 -345 317100 -232441 174 21 21 0.01 16 34
09/18/2016 638.08 84214 -445 317100 -232886 204 2 2 0.00 17 37
09/19/2016 637.86 83770 -444 317100 -233330 215 16 16 0.00 18 40
09/20/2016 637.68 83408 -362 317100 -233692 174 12 12 0.00 18 34
09/21/2016 637.50 83046 -362 317100 -234054 165 -4 -4 0.00 14 26
09/22/2016 637.35 82746 -300 317100 -234354 142 4 5 0.00 10 22
09/23/2016 637.17 82386 -360 317100 -234714 156 -8 -8 0.00 12 26
09/24/2016 636.95 81948 -438 317100 -235152 212 8 8 0.00 12 30
09/25/2016 636.73 81511 -437 317100 -235589 211 10 10 0.00 15 35
09/26/2016 636.54 81135 -376 317100 -235965 193 24 24 0.00 17 37
09/27/2016 636.35 80760 -375 317100 -236340 186 18 -- 0.00 17 36
09/28/2016 636.16 80385 -375 317100 -236715 179 10 -- 0.00 17 36
09/29/2016 635.98 80032 -353 317100 -237068 163 3 -- 0.00 17 32
09/30/2016 635.81 79699 -- 317100 -- 157 4 -- 0.00 13 26
10/01/2016 -- -- -- -- -- -- -- -- -- -- --

Later | Latest

Warning! This data is preliminary and subject to revision.

Show NHG Map | Plot NHG Data | 1 Month NHG Data | Real-Time NHG Data | NHG Info